Time;durP1;ratioP1;P1;durP2;ratioP2;P2;SDS_P1;SDS_P2;PMS_P1;PMS_P2;Temp;Humidity;BMP_temperature;BMP_pressure;BME280_temperature;BME280_humidity;BME280_pressure;Samples;Min_cycle;Max_cycle;Signal;HPM_P1;HPM_P2
2022/12/26 00:00:26;;;;;;;25.23;22.45;;;;;;;2.71;100.00;96271.84;5075854;28;20060;-67
2022/12/26 00:02:51;;;;;;;29.00;22.70;;;;;;;2.72;100.00;96286.53;5073440;28;20070;-67
2022/12/26 00:05:16;;;;;;;25.70;22.85;;;;;;;2.66;100.00;96282.50;5070277;28;20174;-68
2022/12/26 00:07:42;;;;;;;24.25;21.65;;;;;;;2.57;100.00;96283.81;5067503;28;20048;-67
2022/12/26 00:10:07;;;;;;;22.42;19.65;;;;;;;2.54;100.00;96283.09;5074124;28;20090;-67
2022/12/26 00:12:32;;;;;;;19.60;17.60;;;;;;;2.57;100.00;96283.81;5055087;28;20041;-67
2022/12/26 00:14:58;;;;;;;21.23;18.50;;;;;;;2.60;100.00;96279.38;5068366;28;20422;-61
2022/12/26 00:17:23;;;;;;;47.00;39.10;;;;;;;2.70;100.00;96285.75;5071973;28;20456;-64
2022/12/26 00:19:48;;;;;;;49.65;43.88;;;;;;;2.69;100.00;96282.34;5073777;28;20399;-65
2022/12/26 00:22:14;;;;;;;50.22;42.60;;;;;;;2.66;100.00;96282.50;5071428;28;20457;-65
2022/12/26 00:24:40;;;;;;;43.78;36.50;;;;;;;2.64;100.00;96279.09;5073943;28;20486;-65
2022/12/26 00:27:05;;;;;;;86.93;67.03;;;;;;;2.58;100.00;96282.88;5072562;28;20032;-65
2022/12/26 00:29:30;;;;;;;88.57;66.88;;;;;;;2.58;100.00;96272.50;5070972;28;20409;-64
2022/12/26 00:31:56;;;;;;;88.05;67.05;;;;;;;2.54;100.00;96275.31;5073621;28;20517;-65
2022/12/26 00:34:21;;;;;;;65.32;54.65;;;;;;;2.54;100.00;96264.91;5073579;28;20490;-70
2022/12/26 00:36:46;;;;;;;69.18;57.05;;;;;;;2.56;100.00;96258.72;5067824;28;20035;-67
2022/12/26 00:39:12;;;;;;;63.65;50.15;;;;;;;2.54;100.00;96263.16;5073291;28;20433;-67
2022/12/26 00:41:37;;;;;;;46.70;40.20;;;;;;;2.55;100.00;96264.00;5070773;28;20028;-66
2022/12/26 00:44:02;;;;;;;43.90;36.42;;;;;;;2.54;100.00;96262.31;5072144;28;20052;-67
2022/12/26 00:46:28;;;;;;;42.72;34.40;;;;;;;2.48;100.00;96263.47;5073229;28;20410;-66
2022/12/26 00:48:53;;;;;;;38.30;32.45;;;;;;;2.47;100.00;96260.97;5072396;28;20111;-67
2022/12/26 00:51:19;;;;;;;34.50;30.38;;;;;;;2.43;100.00;96268.91;5071683;28;20028;-67
2022/12/26 00:53:45;;;;;;;30.25;26.98;;;;;;;2.39;100.00;96266.53;5071417;28;20089;-61
2022/12/26 00:56:10;;;;;;;27.75;24.55;;;;;;;2.39;100.00;96269.13;5071368;28;20024;-61
2022/12/26 00:58:36;;;;;;;19.65;17.58;;;;;;;2.41;100.00;96264.69;5069976;28;20029;-61
2022/12/26 01:01:08;;;;;;;28.33;23.92;;;;;;;2.41;100.00;96268.13;5071356;28;20032;-61
2022/12/26 01:03:33;;;;;;;19.60;17.63;;;;;;;2.44;100.00;96269.75;5065585;28;20040;-61
2022/12/26 01:06:02;;;;;;;19.95;17.20;;;;;;;2.52;100.00;96267.56;5070485;28;20053;-61
2022/12/26 01:08:27;;;;;;;22.35;17.42;;;;;;;2.51;100.00;96260.69;5066236;28;20534;-61
2022/12/26 01:10:52;;;;;;;19.02;17.17;;;;;;;2.50;100.00;96266.81;5068211;28;20143;-60
2022/12/26 01:13:18;;;;;;;19.55;17.27;;;;;;;2.44;100.00;96267.13;5070360;28;20082;-61
2022/12/26 01:15:49;;;;;;;17.65;15.75;;;;;;;2.40;100.00;96260.41;5068294;28;20478;-64
2022/12/26 01:18:14;;;;;;;19.33;15.48;;;;;;;2.35;100.00;96258.03;5068922;28;20037;-65
2022/12/26 01:20:39;;;;;;;16.23;14.00;;;;;;;2.34;100.00;96255.53;5067420;28;20738;-64
2022/12/26 01:23:05;;;;;;;17.48;14.48;;;;;;;2.34;100.00;96258.13;5067667;28;20043;-65
2022/12/26 01:25:30;;;;;;;13.30;12.00;;;;;;;2.33;100.00;96262.47;5066815;28;20044;-64
2022/12/26 01:27:55;;;;;;;12.85;11.57;;;;;;;2.36;100.00;96279.69;5069614;28;20111;-65
2022/12/26 01:30:20;;;;;;;14.15;12.75;;;;;;;2.38;100.00;96280.44;5069993;28;20032;-65
2022/12/26 01:32:46;;;;;;;15.15;13.05;;;;;;;2.39;100.00;96284.72;5069094;28;20041;-63
2022/12/26 01:35:11;;;;;;;13.27;11.43;;;;;;;2.34;100.00;96299.72;5066651;28;20028;-61
2022/12/26 01:37:37;;;;;;;14.93;11.27;;;;;;;2.35;100.00;96311.78;5068774;28;20024;-61
2022/12/26 01:40:03;;;;;;;11.63;10.68;;;;;;;2.35;100.00;96304.00;5066262;28;20040;-61
2022/12/26 01:42:37;;;;;;;12.38;11.23;;;;;;;2.28;100.00;96309.47;5065034;28;20044;-61
2022/12/26 01:45:20;;;;;;;12.23;11.13;;;;;;;2.28;100.00;96312.06;5065781;28;20024;-61
2022/12/26 01:47:48;;;;;;;12.38;11.05;;;;;;;2.25;100.00;96314.81;5067891;28;20044;-61
2022/12/26 01:50:27;;;;;;;11.95;10.90;;;;;;;2.24;100.00;96318.34;5065079;28;20036;-60
2022/12/26 01:52:56;;;;;;;10.55;9.55;;;;;;;2.17;100.00;96322.16;5069250;28;20040;-60
2022/12/26 01:55:22;;;;;;;14.98;11.07;;;;;;;2.13;100.00;96328.44;5067055;28;20083;-63
2022/12/26 01:57:55;;;;;;;9.70;8.80;;;;;;;2.20;100.00;96334.16;5069035;28;20536;-63
2022/12/26 02:00:21;;;;;;;10.45;9.25;;;;;;;2.28;100.00;96325.06;5067737;28;20055;-63
2022/12/26 02:05:33;;;;;;;11.40;10.40;;;;;;;2.33;100.00;96331.81;5066473;28;20064;-63
2022/12/26 02:08:16;;;;;;;12.10;9.82;;;;;;;2.29;100.00;96331.94;5066859;28;20040;-63
2022/12/26 02:10:55;;;;;;;11.10;10.00;;;;;;;2.37;100.00;96334.16;5065656;28;20039;-66
2022/12/26 02:13:20;;;;;;;11.90;10.45;;;;;;;2.35;100.00;96322.19;5066370;28;20150;-63
2022/12/26 02:15:46;;;;;;;12.75;11.43;;;;;;;2.43;100.00;96318.28;5066433;28;20514;-63
2022/12/26 02:18:11;;;;;;;12.70;11.40;;;;;;;2.40;100.00;96315.81;5068324;28;20036;-63
2022/12/26 02:20:54;;;;;;;11.15;10.18;;;;;;;2.35;100.00;96319.59;5066847;28;20114;-63
2022/12/26 02:23:38;;;;;;;10.55;9.52;;;;;;;2.34;100.00;96313.53;5068907;28;20032;-63
2022/12/26 02:26:09;;;;;;;13.23;10.85;;;;;;;2.37;100.00;96315.97;5067315;28;20129;-63
2022/12/26 02:28:53;;;;;;;16.45;11.82;;;;;;;2.42;100.00;96308.78;5067038;28;20064;-62
2022/12/26 02:31:47;;;;;;;12.65;11.38;;;;;;;2.45;100.00;96309.59;5066836;28;20090;-60
2022/12/26 02:34:19;;;;;;;11.20;9.75;;;;;;;2.36;100.00;96313.47;5059643;28;20045;-61
2022/12/26 02:37:20;;;;;;;10.45;9.40;;;;;;;2.30;100.00;96317.22;5064326;28;20036;-61
2022/12/26 02:39:57;;;;;;;10.98;9.50;;;;;;;2.30;100.00;96309.41;5046331;28;20055;-61
2022/12/26 02:42:46;;;;;;;12.40;9.57;;;;;;;2.27;100.00;96305.19;5066162;28;20044;-61
2022/12/26 02:48:29;;;;;;;12.57;8.90;;;;;;;2.39;100.00;96298.53;5068623;28;20192;-67
2022/12/26 03:17:18;;;;;;;11.20;10.05;;;;;;;2.44;100.00;96316.53;5067747;28;20059;-67
2022/12/26 03:18:19;;;;;;;14.18;10.13;;;;;;;2.39;100.00;96318.50;5066907;28;20106;-67
2022/12/26 03:20:46;;;;;;;10.68;9.55;;;;;;;2.45;100.00;96320.81;5066415;28;20032;-67
2022/12/26 03:23:15;;;;;;;13.00;10.25;;;;;;;2.57;100.00;96311.53;5067665;28;20032;-67
2022/12/26 03:28:43;;;;;;;9.38;8.52;;;;;;;2.62;100.00;96306.94;5066105;28;20055;-67
2022/12/26 03:31:13;;;;;;;11.55;8.35;;;;;;;2.62;100.00;96311.31;5065002;28;20025;-67
2022/12/26 03:36:42;;;;;;;10.98;8.77;;;;;;;2.49;100.00;96317.13;5065397;28;20043;-67
2022/12/26 04:19:22;;;;;;;9.85;8.95;;;;;;;2.42;100.00;96313.97;5066127;28;20111;-67
2022/12/26 04:21:03;;;;;;;9.73;8.82;;;;;;;2.25;100.00;96319.19;5060584;28;20047;-60
2022/12/26 04:46:01;;;;;;;17.25;13.40;;;;;;;2.15;100.00;96329.19;5068824;28;20102;-66
2022/12/26 04:51:11;;;;;;;12.60;11.30;;;;;;;2.06;100.00;96334.81;5066388;28;20464;-60
2022/12/26 04:53:36;;;;;;;12.77;10.52;;;;;;;2.04;100.00;96341.84;5071486;28;20033;-60
2022/12/26 04:56:02;;;;;;;10.55;9.63;;;;;;;2.08;100.00;96343.38;5070044;28;20087;-60
2022/12/26 04:58:27;;;;;;;11.00;9.98;;;;;;;2.09;100.00;96356.31;5063434;28;20854;-60
2022/12/26 05:09:32;;;;;;;13.63;12.23;;;;;;;2.12;100.00;96356.16;5066769;28;20029;-60
2022/12/26 05:11:53;;;;;;;51.25;37.13;;;;;;;1.97;100.00;96356.88;5070697;28;20549;-60
2022/12/26 05:14:18;;;;;;;27.85;22.98;;;;;;;1.91;100.00;96357.16;5070278;28;20112;-60
2022/12/26 05:30:26;;;;;;;18.52;15.82;;;;;;;1.79;100.00;96358.59;5068810;28;20114;-70
2022/12/26 05:35:37;;;;;;;15.02;13.52;;;;;;;1.69;100.00;96347.78;5067704;28;20063;-69
2022/12/26 05:38:02;;;;;;;19.23;15.25;;;;;;;1.72;100.00;96352.84;5070061;28;20040;-69
2022/12/26 05:40:28;;;;;;;15.93;14.25;;;;;;;1.75;100.00;96351.88;5066217;28;20087;-69
2022/12/26 05:42:53;;;;;;;16.92;15.23;;;;;;;1.66;100.00;96351.38;5065715;28;20029;-59
2022/12/26 05:45:19;;;;;;;16.50;14.32;;;;;;;1.63;100.00;96346.31;5069499;28;20037;-67
2022/12/26 05:47:44;;;;;;;14.88;13.13;;;;;;;1.63;100.00;96345.47;5068761;28;20414;-67
2022/12/26 05:50:09;;;;;;;18.75;16.58;;;;;;;1.73;100.00;96348.50;5067242;28;20403;-66
2022/12/26 05:52:35;;;;;;;21.60;16.35;;;;;;;1.74;100.00;96350.19;5064949;28;20123;-67
2022/12/26 05:55:00;;;;;;;19.13;16.05;;;;;;;1.71;100.00;96352.00;5067992;28;20041;-67
2022/12/26 05:57:26;;;;;;;16.92;14.48;;;;;;;1.75;100.00;96357.88;5070146;28;20059;-68
2022/12/26 05:59:51;;;;;;;14.73;13.20;;;;;;;1.74;100.00;96358.78;5063075;28;20644;-67
2022/12/26 06:02:16;;;;;;;15.45;13.57;;;;;;;1.68;100.00;96356.50;5068654;28;20607;-60
2022/12/26 06:04:42;;;;;;;13.73;12.40;;;;;;;1.78;100.00;96365.56;5067555;28;20041;-65
2022/12/26 06:07:07;;;;;;;13.05;11.75;;;;;;;1.84;100.00;96373.06;5067032;28;20040;-61
2022/12/26 06:09:33;;;;;;;12.23;10.63;;;;;;;1.79;100.00;96380.22;5069361;28;20057;-60
2022/12/26 06:11:59;;;;;;;16.05;12.98;;;;;;;1.83;100.00;96375.72;5066588;28;20076;-60
2022/12/26 06:14:24;;;;;;;12.93;11.65;;;;;;;1.73;100.00;96374.47;5068239;28;20024;-61
2022/12/26 06:16:50;;;;;;;12.05;10.85;;;;;;;1.73;100.00;96367.50;5065167;28;20090;-61
2022/12/26 06:19:15;;;;;;;13.50;12.10;;;;;;;1.78;100.00;96372.50;5068482;28;20028;-60
2022/12/26 06:21:40;;;;;;;13.75;12.32;;;;;;;1.82;100.00;96381.81;5068556;28;20035;-71
2022/12/26 06:24:06;;;;;;;12.13;11.13;;;;;;;1.91;100.00;96378.81;5065318;28;20040;-61
2022/12/26 06:26:31;;;;;;;12.65;11.35;;;;;;;1.96;100.00;96381.16;5069669;28;20028;-71
2022/12/26 06:28:57;;;;;;;12.90;11.70;;;;;;;1.86;100.00;96386.81;5064078;28;20037;-71
2022/12/26 06:31:23;;;;;;;10.90;10.00;;;;;;;1.82;100.00;96382.66;5068147;28;20047;-70
2022/12/26 06:33:50;;;;;;;13.50;12.10;;;;;;;1.88;100.00;96378.09;5064469;28;20413;-70
2022/12/26 06:36:19;;;;;;;11.45;10.52;;;;;;;1.92;100.00;96377.03;5065501;28;20115;-71
2022/12/26 06:38:45;;;;;;;11.35;10.38;;;;;;;1.93;100.00;96379.56;5069669;28;20028;-69
2022/12/26 06:41:14;;;;;;;12.15;10.95;;;;;;;1.90;100.00;96387.50;5067669;28;20032;-61
2022/12/26 06:43:40;;;;;;;12.27;11.00;;;;;;;1.88;100.00;96389.34;5064627;28;20517;-68
2022/12/26 06:46:07;;;;;;;12.60;11.45;;;;;;;1.93;100.00;96395.16;5067323;28;20033;-69
2022/12/26 06:48:38;;;;;;;12.30;11.10;;;;;;;1.95;100.00;96406.31;5066794;28;20045;-69
2022/12/26 06:51:05;;;;;;;10.88;9.88;;;;;;;1.86;100.00;96401.53;5060030;28;20036;-69
2022/12/26 06:53:32;;;;;;;10.35;9.43;;;;;;;1.82;100.00;96408.63;5064942;28;20036;-69
2022/12/26 06:56:07;;;;;;;11.43;10.38;;;;;;;1.80;100.00;96415.66;5064406;28;20028;-69
2022/12/26 06:58:33;;;;;;;12.95;11.52;;;;;;;1.83;100.00;96422.44;5062172;28;20039;-69
2022/12/26 07:01:13;;;;;;;15.80;13.25;;;;;;;1.85;100.00;96426.66;5066370;28;20028;-60
2022/12/26 07:03:39;;;;;;;15.55;13.95;;;;;;;1.85;100.00;96425.81;5067278;28;20047;-62
2022/12/26 07:06:07;;;;;;;17.85;15.77;;;;;;;1.85;100.00;96425.81;5065015;28;20498;-61
2022/12/26 07:08:33;;;;;;;21.08;15.98;;;;;;;1.86;100.00;96432.69;5060509;28;20049;-61
2022/12/26 07:10:59;;;;;;;20.50;16.95;;;;;;;1.84;100.00;96435.38;5065811;28;20032;-61
2022/12/26 07:13:24;;;;;;;24.30;21.92;;;;;;;1.84;100.00;96434.50;5061641;28;20033;-61
2022/12/26 07:15:49;;;;;;;18.90;16.90;;;;;;;1.86;100.00;96443.94;5057892;28;20036;-62
2022/12/26 07:18:15;;;;;;;20.15;18.00;;;;;;;1.86;100.00;96446.53;5068270;28;20430;-62
2022/12/26 07:20:40;;;;;;;21.40;19.23;;;;;;;1.81;100.00;96445.03;5046096;28;20128;-68
2022/12/26 07:23:05;;;;;;;23.67;21.27;;;;;;;1.78;100.00;96445.19;5061958;28;20039;-71
2022/12/26 07:25:30;;;;;;;22.98;20.67;;;;;;;1.76;100.00;96450.44;5066157;28;20127;-72
2022/12/26 07:27:57;;;;;;;22.58;20.30;;;;;;;1.78;100.00;96450.38;5062576;28;20029;-71
2022/12/26 07:30:22;;;;;;;18.55;16.92;;;;;;;1.89;100.00;96448.16;5062528;28;20384;-71
2022/12/26 07:32:47;;;;;;;24.13;21.63;;;;;;;1.96;100.00;96443.50;5067852;28;20078;-71
2022/12/26 07:35:13;;;;;;;23.35;20.98;;;;;;;2.01;100.00;96449.34;5060112;28;20047;-70
2022/12/26 07:37:38;;;;;;;21.13;19.13;;;;;;;2.05;100.00;96450.03;5062241;28;20102;-61
2022/12/26 07:40:04;;;;;;;19.52;17.52;;;;;;;2.06;100.00;96456.91;5066321;28;20033;-62
2022/12/26 07:42:29;;;;;;;18.20;16.52;;;;;;;2.10;100.00;96455.84;5065280;28;20031;-65
2022/12/26 07:44:54;;;;;;;18.88;16.98;;;;;;;2.18;100.00;96460.69;5067687;28;20039;-66
2022/12/26 07:47:20;;;;;;;21.90;19.10;;;;;;;2.16;100.00;96455.59;5065959;28;20036;-65
2022/12/26 07:49:45;;;;;;;19.52;17.50;;;;;;;2.15;100.00;96464.28;5060703;28;20039;-65
2022/12/26 07:52:10;;;;;;;17.83;15.85;;;;;;;2.22;100.00;96470.88;5067386;28;20538;-65
2022/12/26 07:54:36;;;;;;;16.90;15.40;;;;;;;2.31;100.00;96473.94;5068107;28;20052;-65
2022/12/26 07:57:02;;;;;;;21.17;17.60;;;;;;;2.38;100.00;96472.78;5067659;28;20025;-69
2022/12/26 07:59:27;;;;;;;19.33;17.38;;;;;;;2.42;100.00;96467.34;5067286;28;20031;-62
2022/12/26 08:01:52;;;;;;;31.08;27.88;;;;;;;2.52;100.00;96465.13;5067722;28;20046;-66
2022/12/26 08:04:18;;;;;;;27.95;24.98;;;;;;;2.58;100.00;96470.06;5067733;28;20124;-65
2022/12/26 08:06:45;;;;;;;21.88;19.65;;;;;;;2.61;100.00;96468.25;5063323;28;20044;-65
2022/12/26 08:09:14;;;;;;;20.27;18.23;;;;;;;2.75;100.00;96472.75;5066663;28;20075;-65
2022/12/26 08:11:40;;;;;;;19.17;17.13;;;;;;;2.90;100.00;96471.16;5064216;28;20048;-65
2022/12/26 08:14:07;;;;;;;16.23;14.68;;;;;;;2.84;100.00;96473.16;5072154;28;20037;-65
2022/12/26 08:16:33;;;;;;;15.23;13.93;;;;;;;2.88;100.00;96491.22;5070771;28;20036;-61
2022/12/26 08:19:02;;;;;;;14.70;11.73;;;;;;;2.90;100.00;96492.84;5069906;28;20409;-61
2022/12/26 08:21:27;;;;;;;12.90;11.55;;;;;;;2.99;100.00;96496.75;5065858;28;20502;-62
2022/12/26 08:23:53;;;;;;;14.40;13.02;;;;;;;2.99;100.00;96496.75;5070077;28;20046;-61
2022/12/26 08:26:22;;;;;;;15.18;13.77;;;;;;;3.00;100.00;96496.66;5067642;28;20036;-61
2022/12/26 08:28:48;;;;;;;16.05;14.57;;;;;;;3.08;100.00;96501.47;5064988;28;20044;-61
2022/12/26 08:31:14;;;;;;;19.33;17.52;;;;;;;3.18;100.00;96496.66;5072263;28;20028;-61
2022/12/26 08:33:40;;;;;;;17.40;15.68;;;;;;;3.27;100.00;96501.41;5066323;28;20047;-61
2022/12/26 08:36:08;;;;;;;14.82;13.00;;;;;;;3.34;100.00;96501.94;5070148;28;20502;-70
2022/12/26 08:38:34;;;;;;;13.00;11.77;;;;;;;3.46;100.00;96504.84;5063402;28;20025;-62
2022/12/26 08:41:00;;;;;;;16.95;15.32;;;;;;;3.52;100.00;96504.53;5068573;28;20044;-60
2022/12/26 08:43:25;;;;;;;16.45;14.73;;;;;;;3.57;100.00;96513.81;5065269;28;20059;-60
2022/12/26 08:46:03;;;;;;;17.45;15.90;;;;;;;3.64;100.00;96523.91;5071500;28;20422;-60
2022/12/26 08:48:29;;;;;;;17.38;15.55;;;;;;;3.73;100.00;96519.06;5070934;28;20044;-60
2022/12/26 08:51:00;;;;;;;17.48;15.95;;;;;;;3.82;100.00;96522.09;5068814;28;20050;-60
2022/12/26 08:53:27;;;;;;;17.52;15.70;;;;;;;3.88;100.00;96524.41;5070358;28;20029;-60
2022/12/26 08:55:53;;;;;;;17.25;15.45;;;;;;;3.92;100.00;96527.66;5069606;28;20422;-66
2022/12/26 08:58:19;;;;;;;18.23;16.45;;;;;;;4.00;100.00;96539.38;5065347;28;20037;-61
2022/12/26 09:00:44;;;;;;;22.75;20.60;;;;;;;4.13;100.00;96550.00;5070985;28;20036;-61
2022/12/26 09:03:09;;;;;;;22.70;16.42;;;;;;;4.28;100.00;96560.53;5070447;28;20041;-60
2022/12/26 09:05:35;;;;;;;18.25;15.98;;;;;;;4.50;100.00;96562.81;5066924;28;20048;-61
2022/12/26 09:08:00;;;;;;;20.38;18.30;;;;;;;4.66;100.00;96569.81;5067563;28;20124;-61
2022/12/26 09:10:25;;;;;;;22.05;19.92;;;;;;;4.84;100.00;96568.81;5071333;28;20443;-61
2022/12/26 09:12:51;;;;;;;24.20;21.70;;;;;;;4.95;100.00;96570.84;5072770;28;20055;-61
2022/12/26 09:15:16;;;;;;;21.90;19.77;;;;;;;5.02;100.00;96569.56;5071788;28;20064;-61
2022/12/26 09:17:42;;;;;;;22.50;20.40;;;;;;;5.12;100.00;96575.09;5069758;28;20529;-62
2022/12/26 09:20:08;;;;;;;24.42;22.10;;;;;;;5.27;100.00;96588.22;5066880;28;20040;-62
2022/12/26 09:22:52;;;;;;;24.15;21.55;;;;;;;5.39;100.00;96594.53;5065255;28;20047;-62
2022/12/26 09:25:21;;;;;;;40.05;32.10;;;;;;;5.54;100.00;96598.03;5073284;28;20087;-62
2022/12/26 09:27:46;;;;;;;40.00;35.55;;;;;;;5.61;100.00;96608.97;5066306;28;20119;-63
2022/12/26 09:30:12;;;;;;;26.48;23.73;;;;;;;5.65;100.00;96606.09;5069518;28;20071;-63
2022/12/26 09:32:38;;;;;;;19.42;17.48;;;;;;;5.66;100.00;96599.09;5065741;28;20119;-63
2022/12/26 09:35:05;;;;;;;23.85;21.08;;;;;;;5.67;100.00;96608.59;5064233;28;20119;-71
2022/12/26 09:37:30;;;;;;;24.60;22.50;;;;;;;5.71;100.00;96599.66;5064708;28;20115;-67
2022/12/26 09:39:56;;;;;;;20.13;18.33;;;;;;;5.78;100.00;96601.00;5067963;28;20127;-68
2022/12/26 09:42:59;;;;;;;28.75;25.95;;;;;;;5.94;100.00;96610.53;5065383;28;20045;-68
2022/12/26 09:45:53;;;;;;;38.97;35.33;;;;;;;6.05;100.00;96612.53;5064311;28;20140;-69
2022/12/26 09:48:45;;;;;;;24.00;21.70;;;;;;;6.14;100.00;96617.22;5064349;28;20040;-68
2022/12/26 09:51:11;;;;;;;32.03;29.13;;;;;;;6.27;100.00;96615.53;5066678;28;20071;-67
2022/12/26 09:53:42;;;;;;;29.27;18.95;;;;;;;6.37;100.00;96618.44;5061246;28;20447;-66
2022/12/26 09:56:13;;;;;;;22.48;19.90;;;;;;;6.56;100.00;96612.94;5063284;28;20023;-61
2022/12/26 09:58:51;;;;;;;24.65;22.30;;;;;;;6.87;100.00;96616.25;5060339;28;20062;-70
2022/12/26 10:01:21;;;;;;;24.02;21.63;;;;;;;7.15;100.00;96616.31;5065374;28;20498;-68
2022/12/26 10:03:52;;;;;;;25.70;23.13;;;;;;;7.41;100.00;96616.41;5068684;28;20056;-68
2022/12/26 10:06:20;;;;;;;26.52;23.55;;;;;;;7.62;100.00;96621.19;5060022;28;20041;-66
2022/12/26 10:09:19;;;;;;;25.45;22.38;;;;;;;7.81;100.00;96623.41;5069657;28;20036;-69
2022/12/26 10:11:50;;;;;;;22.15;19.88;;;;;;;8.07;100.00;96615.59;5064182;28;20028;-70
2022/12/26 10:14:19;;;;;;;19.25;16.80;;;;;;;8.28;100.00;96618.56;5068424;28;20107;-70
2022/12/26 10:16:51;;;;;;;12.75;11.50;;;;;;;8.36;100.00;96610.16;5067602;28;20021;-68
2022/12/26 10:19:31;;;;;;;11.77;10.68;;;;;;;8.41;100.00;96605.44;5068962;28;20557;-68
2022/12/26 10:22:05;;;;;;;15.48;12.35;;;;;;;8.56;100.00;96609.66;5069651;28;20037;-69
2022/12/26 10:24:34;;;;;;;13.02;11.70;;;;;;;8.67;100.00;96606.28;5065581;28;20070;-68
2022/12/26 10:27:04;;;;;;;14.48;11.75;;;;;;;8.76;100.00;96607.41;5069346;28;20121;-68
2022/12/26 10:29:36;;;;;;;14.02;12.82;;;;;;;8.80;100.00;96606.25;5069176;28;20159;-69
2022/12/26 10:32:07;;;;;;;14.23;12.70;;;;;;;8.72;100.00;96608.56;5066077;28;20040;-66
2022/12/26 10:34:40;;;;;;;14.50;12.35;;;;;;;8.66;100.00;96606.38;5069681;28;20052;-63
2022/12/26 10:37:26;;;;;;;13.40;12.10;;;;;;;8.64;100.00;96608.28;5065513;28;20037;-68
2022/12/26 10:40:00;;;;;;;15.55;12.75;;;;;;;8.64;100.00;96603.88;5068934;28;20033;-66
2022/12/26 10:42:42;;;;;;;18.17;11.90;;;;;;;8.67;100.00;96594.94;5070001;28;20139;-68
2022/12/26 10:45:32;;;;;;;14.13;11.77;;;;;;;8.64;100.00;96590.75;5066556;28;20036;-67
2022/12/26 10:47:57;;;;;;;13.85;11.90;;;;;;;8.60;100.00;96592.75;5063395;28;20751;-68
2022/12/26 10:50:26;;;;;;;12.85;11.45;;;;;;;8.51;100.00;96584.66;5064576;28;20120;-69
2022/12/26 10:52:52;;;;;;;15.38;11.73;;;;;;;8.43;100.00;96582.53;5068607;28;20498;-71
2022/12/26 10:55:26;;;;;;;14.32;12.70;;;;;;;8.39;100.00;96578.44;5065746;28;20079;-69
2022/12/26 10:57:53;;;;;;;15.20;13.40;;;;;;;8.40;100.00;96580.13;5065350;28;20032;-69
2022/12/26 11:00:21;;;;;;;13.18;10.95;;;;;;;8.38;100.00;96582.84;5066147;28;20107;-69
2022/12/26 11:03:09;;;;;;;13.00;11.70;;;;;;;8.29;100.00;96576.47;5071189;28;20047;-70
2022/12/26 11:05:40;;;;;;;13.07;11.93;;;;;;;8.21;100.00;96576.16;5068390;28;20055;-69
2022/12/26 11:08:29;;;;;;;15.13;11.50;;;;;;;8.15;100.00;96577.41;5061633;28;20043;-69
2022/12/26 11:11:05;;;;;;;13.50;12.18;;;;;;;8.16;100.00;96581.69;5058901;28;20116;-66
2022/12/26 11:13:55;;;;;;;17.35;15.55;;;;;;;8.09;100.00;96584.88;5075780;28;20029;-63
2022/12/26 11:16:39;;;;;;;20.98;18.75;;;;;;;8.08;100.00;96580.56;5060050;28;20033;-65
2022/12/26 11:19:05;;;;;;;20.02;17.58;;;;;;;8.12;100.00;96582.03;5063413;28;20033;-64
2022/12/26 11:21:31;;;;;;;22.10;16.80;;;;;;;8.05;100.00;96583.38;5061676;28;20514;-64
2022/12/26 11:24:05;;;;;;;20.63;17.77;;;;;;;8.14;100.00;96580.16;5058543;28;20107;-64
2022/12/26 11:26:31;;;;;;;18.52;14.82;;;;;;;8.21;100.00;96585.81;5064130;28;21568;-65
2022/12/26 11:29:08;;;;;;;16.83;13.80;;;;;;;8.23;100.00;96590.00;5062085;28;20039;-64
2022/12/26 11:31:35;;;;;;;12.00;10.70;;;;;;;8.05;100.00;96586.00;5058095;28;20041;-66
2022/12/26 11:34:06;;;;;;;10.45;9.32;;;;;;;7.99;100.00;96582.88;5058769;28;20036;-71
2022/12/26 11:36:33;;;;;;;12.05;10.82;;;;;;;8.22;100.00;96561.28;5059922;28;20098;-71
2022/12/26 11:39:06;;;;;;;17.27;14.05;;;;;;;8.03;100.00;96568.59;5059106;28;20037;-72
2022/12/26 11:41:39;;;;;;;13.25;11.73;;;;;;;8.01;100.00;96560.00;5063783;28;20040;-71
2022/12/26 11:44:04;;;;;;;11.18;9.95;;;;;;;7.98;100.00;96548.91;5065686;28;20037;-71
2022/12/26 11:46:40;;;;;;;10.07;9.25;;;;;;;7.87;100.00;96544.38;5060761;28;20040;-72
2022/12/26 11:49:14;;;;;;;10.15;8.13;;;;;;;7.83;100.00;96542.88;5064448;28;20024;-72
2022/12/26 11:51:44;;;;;;;7.67;6.77;;;;;;;7.79;100.00;96536.19;5065861;28;20035;-63
2022/12/26 11:54:25;;;;;;;8.05;7.10;;;;;;;7.94;100.00;96539.53;5064679;28;20037;-67
2022/12/26 11:57:13;;;;;;;8.77;7.93;;;;;;;8.07;100.00;96526.41;5061698;28;20021;-67
2022/12/26 11:59:38;;;;;;;10.50;9.45;;;;;;;8.06;100.00;96525.59;5063390;28;20112;-67
2022/12/26 12:02:27;;;;;;;8.48;7.60;;;;;;;7.97;100.00;96515.75;5061699;28;20111;-66
2022/12/26 12:04:56;;;;;;;9.63;8.63;;;;;;;7.80;100.00;96514.25;5064425;28;20502;-66
2022/12/26 12:07:32;;;;;;;13.00;11.80;;;;;;;7.73;100.00;96503.34;5065865;28;20113;-66
2022/12/26 12:10:16;;;;;;;11.55;10.32;;;;;;;7.77;100.00;96494.34;5065065;28;20119;-67
2022/12/26 12:12:53;;;;;;;13.05;9.50;;;;;;;7.76;100.00;96478.72;5069234;28;20718;-64
2022/12/26 12:15:27;;;;;;;57.60;39.03;;;;;;;7.63;100.00;96471.72;5065555;28;20041;-64
2022/12/26 12:18:08;;;;;;;30.92;21.40;;;;;;;7.59;100.00;96480.69;5077262;28;20120;-64
2022/12/26 12:20:55;;;;;;;22.63;18.23;;;;;;;7.58;100.00;96490.34;5061711;28;20076;-63
2022/12/26 12:23:20;;;;;;;11.95;10.75;;;;;;;7.85;100.00;96504.31;5065512;28;20601;-64
2022/12/26 12:26:17;;;;;;;18.95;17.05;;;;;;;7.94;100.00;96514.16;5065761;28;20052;-63
2022/12/26 12:28:54;;;;;;;11.63;10.43;;;;;;;7.90;100.00;96512.69;5059557;28;20041;-68
2022/12/26 12:31:38;;;;;;;14.25;12.80;;;;;;;7.74;100.00;96526.03;5059151;28;20040;-65
2022/12/26 12:34:24;;;;;;;14.25;12.75;;;;;;;7.77;100.00;96527.56;5059860;28;20108;-63
2022/12/26 12:36:59;;;;;;;14.32;12.98;;;;;;;7.76;100.00;96525.91;5062961;28;20037;-63
2022/12/26 12:39:57;;;;;;;14.43;12.93;;;;;;;7.81;100.00;96510.69;5063540;28;20032;-64
2022/12/26 12:42:48;;;;;;;15.13;13.63;;;;;;;7.89;100.00;96522.34;5060921;28;20534;-68
2022/12/26 12:45:39;;;;;;;15.85;13.35;;;;;;;7.90;100.00;96507.47;5065265;28;20098;-68
2022/12/26 12:48:26;;;;;;;16.17;14.57;;;;;;;8.03;100.00;96512.69;5062674;28;20052;-66
2022/12/26 12:51:30;;;;;;;16.02;14.52;;;;;;;7.98;100.00;96502.50;5062052;28;20620;-65
2022/12/26 12:54:20;;;;;;;14.05;12.65;;;;;;;8.01;100.00;96520.66;5061798;28;20037;-63
2022/12/26 12:57:17;;;;;;;13.52;12.13;;;;;;;8.01;100.00;96511.97;5067519;28;20032;-64
2022/12/26 13:00:10;;;;;;;17.20;15.52;;;;;;;8.05;100.00;96502.09;5037221;28;20110;-62
2022/12/26 13:03:04;;;;;;;20.77;18.27;;;;;;;8.13;100.00;96489.28;5063766;28;20025;-63
2022/12/26 13:05:29;;;;;;;20.00;17.52;;;;;;;8.27;100.00;96480.44;5068038;28;20041;-63
2022/12/26 13:08:05;;;;;;;24.55;22.05;;;;;;;8.29;100.00;96483.81;5066530;28;20044;-63
2022/12/26 13:10:33;;;;;;;34.53;28.73;;;;;;;8.48;100.00;96482.50;5065655;28;20036;-63
2022/12/26 13:13:08;;;;;;;23.42;21.02;;;;;;;8.37;100.00;96484.09;5047901;28;20536;-62
2022/12/26 13:15:39;;;;;;;16.58;14.70;;;;;;;8.26;100.00;96490.09;5066073;28;20131;-61
2022/12/26 13:18:15;;;;;;;14.13;12.73;;;;;;;8.24;100.00;96492.00;5071784;28;20029;-61
2022/12/26 13:20:46;;;;;;;13.50;10.57;;;;;;;8.23;100.00;96492.13;5061947;28;20047;-61
2022/12/26 13:26:17;;;;;;;14.13;12.73;;;;;;;8.17;100.00;96504.69;5061601;28;20074;-63
2022/12/26 13:29:05;;;;;;;14.32;11.20;;;;;;;8.32;100.00;96489.69;5063572;28;20037;-63
2022/12/26 13:31:35;;;;;;;15.60;14.10;;;;;;;8.39;100.00;96505.81;5061952;28;20040;-63
2022/12/26 13:34:02;;;;;;;19.23;17.30;;;;;;;8.54;100.00;96506.56;5067692;28;20036;-63
2022/12/26 13:36:40;;;;;;;18.30;16.40;;;;;;;8.50;100.00;96507.69;5068211;28;20037;-62
2022/12/26 13:39:11;;;;;;;16.40;14.80;;;;;;;8.58;100.00;96505.38;5067714;28;20039;-62
2022/12/26 13:44:28;;;;;;;15.77;13.52;;;;;;;8.55;100.00;96489.00;5069519;28;20039;-62
2022/12/26 13:46:56;;;;;;;14.43;12.70;;;;;;;8.54;100.00;96482.09;5067383;28;20040;-69